DW0564 Weather Reports


time (UTC)temp
C
wind
direction
speed
KPH
gust
KPH
rain 1hr
cm
rain 24hr
cm
rain mn
cm
humidity
%
barometer
mb
20190423020058 13 17 9.7 20.9 0.00 1.73 1.73 86 1013.1
20190423014544 13 348 9.7 22.5 0.00 1.73 1.73 86 1013.2
20190423013116 13 336 9.7 24.1 0.00 1.73 1.73 86 1013.3
20190423011539 13 17 12.9 24.1 0.00 1.73 1.73 86 1013.4
20190423010104 13 333 6.4 20.9 0.00 1.73 1.73 86 1013.3
20190423004626 12 38 9.7 19.3 0.00 1.73 1.73 86 1013.4
20190423003109 12 355 6.4 20.9 0.00 1.73 1.73 86 1013.3
20190423001557 12 9 9.7 19.3 0.00 1.73 1.73 85 1013.3
20190423000124 12 5 12.9 24.1 0.00 1.73 1.73 85 1013.3
20190422234623 12 5 6.4 14.5 0.03 1.73 1.73 85 1013.2
20190422233118 12 19 12.9 27.4 0.05 1.73 1.73 85 1013.2
20190422231631 12 9 11.3 22.5 0.05 1.73 1.73 85 1013.2
20190422230120 12 350 14.5 25.7 0.08 1.73 1.73 85 1013.2
20190422224635 12 330 14.5 25.7 0.05 1.70 1.70 85 1013.1
20190422223153 12 340 9.7 22.5 0.08 1.68 1.68 84 1013.0
20190422221543 12 319 9.7 20.9 0.28 1.68 1.68 84 1013.2
20190422220133 12 304 4.8 19.3 0.43 1.65 1.65 85 1013.8
20190422214619 13 24 8.0 19.3 0.64 1.65 1.65 84 1013.9
20190422213102 13 350 3.2 6.4 0.79 1.57 1.57 84 1014.2
20190422211629 13 323 3.2 8.0 0.97 1.40 1.40 85 1014.3
20190422204614 13 105 1.6 3.2 0.91 0.99 0.99 85 1014.6
20190422203113 13 105 1.6 4.8 0.71 0.79 0.79 85 1014.7
20190422201641 14 51 1.6 12.9 0.38 0.43 0.43 85 1014.5
20190422200132 15 172 6.4 9.7 0.08 0.13 0.13 84 1014.3
20190422194707 15 18 4.8 12.9 0.03 0.08 0.08 82 1013.5
20190422193157 15 5 11.3 22.5 0.00 0.05 0.05 83 1012.9
20190422191553 14 355 11.3 24.1 0.03 0.05 0.05 84 1013.2
20190422190132 14 81 11.3 25.7 0.03 0.05 0.05 85 1013.5
20190422184539 13 355 16.1 27.4 0.03 0.05 0.05 85 1013.8
20190422183128 14 346 14.5 27.4 0.03 0.05 0.05 85 1013.9
20190422181610 15 56 12.9 27.4 0.00 0.03 0.03 83 1014.2
20190422180127 15 55 9.7 27.4 0.00 0.03 0.03 82 1014.3
20190422174619 15 39 16.1 27.4 0.00 0.03 0.03 81 1013.9
20190422173111 15 31 14.5 38.6 0.00 0.03 0.03 80 1013.5
20190422171656 16 351 16.1 33.8 0.00 0.03 0.03 78 1013.8
20190422170112 16 42 16.1 32.2 0.00 0.03 0.03 75 1014.5
20190422164608 17 24 17.7 37.0 0.00 0.03 0.03 71 1014.5
20190422163111 17 15 19.3 32.2 0.00 0.03 0.03 73 1014.2
20190422161604 17 40 14.5 24.1 0.00 0.03 0.03 76 1014.2
20190422160159 17 9 11.3 24.1 0.00 0.03 0.03 76 1015.0
20190422154633 16 21 9.7 17.7 0.00 0.03 0.03 76 1015.1
20190422153231 16 31 6.4 9.7 0.00 0.03 0.03 77 1015.5
20190422151540 16 41 8.0 20.9 0.00 0.03 0.03 78 1015.6
20190422150147 16 44 6.4 17.7 0.00 0.03 0.03 79 1015.9
20190422144617 16 39 9.7 19.3 0.00 0.03 0.03 81 1015.8
20190422143133 15 55 8.0 14.5 0.00 0.03 0.03 83 1016.1
20190422141559 15 33 4.8 11.3 0.00 0.03 0.03 84 1016.4
20190422140115 14 5 4.8 9.7 0.00 0.03 0.03 86 1016.3
20190422134617 13 5 4.8 12.9 0.00 0.03 0.03 86 1016.3
20190422133104 13 338 8.0 16.1 0.00 0.03 0.03 86 1016.5
20190422131634 12 355 6.4 12.9 0.00 0.03 0.03 86 1016.8
20190422130105 12 38 6.4 12.9 0.00 0.03 0.03 85 1017.3
20190422123106 11 339 6.4 14.5 0.00 0.05 0.03 86 1017.2
20190422121550 11 355 6.4 11.3 0.00 0.05 0.03 86 1017.5
20190422120140 10 55 3.2 12.9 0.00 0.05 0.03 86 1017.6
20190422114608 10 29 6.4 11.3 0.00 0.13 0.03 86 1017.8
20190422113108 10 20 4.8 11.3 0.00 0.13 0.03 86 1017.8
20190422111620 10 32 3.2 8.0 0.00 0.13 0.03 86 1017.6
20190422110135 9 297 0.0 3.2 0.00 0.13 0.03 86 1017.6
20190422104556 9 297 0.0 3.2 0.00 0.15 0.03 86 1017.6
20190422103152 9 315 1.6 4.8 0.00 0.15 0.03 86 1017.2
20190422101627 9 345 0.0 6.4 0.00 0.15 0.03 86 1017.2
20190422100120 9 341 1.6 4.8 0.00 0.15 0.03 86 1017.1
20190422094626 9 319 1.6 4.8 0.00 0.15 0.03 86 1017.1
20190422093101 9 293 1.6 4.8 0.00 0.15 0.03 86 1017.2
20190422090044 9 347 3.2 6.4 0.00 0.15 0.03 86 1017.1
20190422084605 9 326 0.0 3.2 0.03 0.15 0.03 86 1017.1
20190422083129 9 324 1.6 6.4 0.03 0.15 0.03 86 1017.1
20190422081611 9 345 0.0 4.8 0.03 0.15 0.03 86 1017.5
20190422080106 9 171 1.6 4.8 0.03 0.15 0.03 86 1017.7
20190422074636 8 190 1.6 4.8 0.00 0.13 0.00 85 1017.8
20190422073117 8 294 1.6 4.8 0.00 0.13 0.00 86 1017.5
20190422071642 8 294 1.6 3.2 0.00 0.13 0.00 86 1018.1
20190422070044 8 294 0.0 3.2 0.00 0.13 0.00 86 1018.3
20190422064559 8 294 1.6 4.8 0.00 0.13 0.00 85 1018.7
20190422063238 8 294 0.0 4.8 0.00 0.13 0.00 86 1018.7
20190422061617 8 265 0.0 0.0 0.00 0.13 0.00 86 1019.1
20190422060154 8 265 0.0 0.0 0.00 0.13 0.00 85 1019.2
20190422054617 8 265 0.0 0.0 0.00 0.13 0.00 85 1019.0
20190422053046 8 265 0.0 0.0 0.00 0.13 0.00 85 1019.0
20190422051619 8 252 0.0 0.0 0.00 0.13 0.00 85 1018.8
20190422050136 8 252 0.0 3.2 0.00 0.13 0.00 85 1018.8
20190422044607 9 252 0.0 3.2 0.00 0.23 0.00 85 1018.9
20190422043106 9 252 0.0 1.6 0.00 0.23 0.00 85 1019.0
20190422040202 9 252 3.2 4.8 0.00 0.23 0.00 85 1019.2
20190422034636 9 251 0.0 3.2 0.00 0.36 0.23 85 1019.2
20190422033108 9 251 0.0 0.0 0.00 0.36 0.23 85 1019.3
20190422031642 9 251 0.0 0.0 0.00 0.36 0.23 85 1019.1
20190422030103 10 251 0.0 3.2 0.00 0.36 0.23 85 1019.2
20190422024608 10 251 0.0 0.0 0.00 0.36 0.23 85 1019.2
20190422023113 10 251 0.0 0.0 0.00 0.36 0.23 85 1019.4
20190422021627 10 251 0.0 3.2 0.00 0.36 0.23 85 1019.2